MSC Sabrina — 3FMG8 — position and weather

sailwx.info

Track history (hours):
 
Tides and Currents Weather Stations Pressure Air Temp Water Temp Dewpoint Dewpoint Depression Visibility Wind Speed Wind Dir Waves Ship Positions

MSC Sabrina

Last reported at 2018-Jun-20 03:16 UTC. Time now 2018-Jun-22 18:51 UTC.
Position N 05°25' E 000°39'.

Length 224 m; beam 32.2 m; draft 12.1 m.

Type: Ship (hazmat cat A). MMSI: 356101000.

Date/timePositionNaut miles runAvg speedWind from/ knotsBaromVisibWave heightAir tempDewpointWater temp
2018-Jun-20 03:16N 05°25' E 000°39'515.5
2018-Jun-20 02:55N 05°24' E 000°34'615.5
2018-Jun-20 02:30N 05°22' E 000°28'815.3
2018-Jun-20 02:00N 05°19' E 000°20'815.2
2018-Jun-20 01:30N 05°16' E 000°14'815.4
2018-Jun-20 01:00N 05°14' E 000°06'815.4
2018-Jun-20 00:30N 05°11' W 000°01'815.5
2018-Jun-20 00:00N 05°08' W 000°08'815.5
2018-Jun-19 23:30N 05°05' W 000°16'  
2018-Jun-12 22:45N 05°03' W 000°09'614.5
2018-Jun-12 22:22N 05°05' W 000°04'914.4
2018-Jun-12 21:44N 05°08' E 000°05'514.4
2018-Jun-12 21:24N 05°09' E 000°09'614.5
2018-Jun-12 21:00N 05°11' E 000°15'714.4
2018-Jun-12 20:30N 05°13' E 000°22'714.1
2018-Jun-12 20:00N 05°17' E 000°27'714.5
2018-Jun-12 19:30N 05°18' E 000°35'5 0.1
2018-Jun-11 02:24N 05°23' E 000°34'613.9
2018-Jun-11 02:00N 05°22' E 000°29'714.0
2018-Jun-11 01:30N 05°19' E 000°22'714.1
2018-Jun-11 01:00N 05°17' E 000°15'714.1
2018-Jun-11 00:30N 05°14' E 000°09'714.2
2018-Jun-11 00:00N 05°12' E 000°02'714.0
2018-Jun-10 23:30N 05°10' W 000°05'814.1
2018-Jun-10 22:56N 05°07' W 000°12'2614.2
2018-Jun-10 21:05N 04°58' W 000°37'114.4
2018-Jun-10 21:00N 04°58' W 000°38'  
Track history (hours):
 
Tides and Currents Weather Stations Pressure Air Temp Water Temp Dewpoint Dewpoint Depression Visibility Wind Speed Wind Dir Waves Ship Positions

MSC Sabrina

Last reported at 2018-Jun-20 03:16 UTC. Time now 2018-Jun-22 18:51 UTC.
Position N 05°25' E 000°39'.

Length 224 m; beam 32.2 m; draft 12.1 m.

Type: Ship (hazmat cat A). MMSI: 356101000.

Date/timePositionNaut miles runAvg speedWind from/ knotsBaromVisibWave heightAir tempDewpointWater temp
2018-Jun-20 03:16N 05°25' E 000°39'515.5
2018-Jun-20 02:55N 05°24' E 000°34'615.5
2018-Jun-20 02:30N 05°22' E 000°28'815.3
2018-Jun-20 02:00N 05°19' E 000°20'815.2
2018-Jun-20 01:30N 05°16' E 000°14'815.4
2018-Jun-20 01:00N 05°14' E 000°06'815.4
2018-Jun-20 00:30N 05°11' W 000°01'815.5
2018-Jun-20 00:00N 05°08' W 000°08'815.5
2018-Jun-19 23:30N 05°05' W 000°16'  
2018-Jun-12 22:45N 05°03' W 000°09'614.5
2018-Jun-12 22:22N 05°05' W 000°04'914.4
2018-Jun-12 21:44N 05°08' E 000°05'514.4
2018-Jun-12 21:24N 05°09' E 000°09'614.5
2018-Jun-12 21:00N 05°11' E 000°15'714.4
2018-Jun-12 20:30N 05°13' E 000°22'714.1
2018-Jun-12 20:00N 05°17' E 000°27'714.5
2018-Jun-12 19:30N 05°18' E 000°35'5 0.1
2018-Jun-11 02:24N 05°23' E 000°34'613.9
2018-Jun-11 02:00N 05°22' E 000°29'714.0
2018-Jun-11 01:30N 05°19' E 000°22'714.1
2018-Jun-11 01:00N 05°17' E 000°15'714.1
2018-Jun-11 00:30N 05°14' E 000°09'714.2
2018-Jun-11 00:00N 05°12' E 000°02'714.0
2018-Jun-10 23:30N 05°10' W 000°05'814.1
2018-Jun-10 22:56N 05°07' W 000°12'2614.2
2018-Jun-10 21:05N 04°58' W 000°37'114.4
2018-Jun-10 21:00N 04°58' W 000°38'  

Dump ship's entire track history